Time;durP1;ratioP1;P1;durP2;ratioP2;P2;SDS_P1;SDS_P2;PMS_P1;PMS_P2;Temp;Humidity;BMP_temperature;BMP_pressure;BME280_temperature;BME280_humidity;BME280_pressure;Samples;Min_cycle;Max_cycle;Signal;HPM_P1;HPM_P2
2021/12/08 00:00:22;;;;;;;42.17;22.45;;;;;;;;;;5058877;28;20059;-92
2021/12/08 00:02:48;;;;;;;43.80;23.48;;;;;;;;;;5059037;28;20035;-90
2021/12/08 00:05:15;;;;;;;40.83;21.23;;;;;;;;;;5058858;28;20033;-89
2021/12/08 00:07:42;;;;;;;46.20;22.40;;;;;;;;;;5057791;28;20039;-88
2021/12/08 00:15:23;;;;;;;40.25;21.50;;;;;;;;;;5059022;28;20112;-89
2021/12/08 00:17:49;;;;;;;43.08;21.83;;;;;;;;;;5058799;28;20028;-88
2021/12/08 00:20:16;;;;;;;39.60;21.20;;;;;;;;;;5057922;28;20071;-89
2021/12/08 00:22:42;;;;;;;38.88;21.02;;;;;;;;;;5058646;28;20407;-89
2021/12/08 00:25:08;;;;;;;42.25;23.92;;;;;;;;;;5058676;28;20044;-88
2021/12/08 00:27:34;;;;;;;43.10;22.48;;;;;;;;;;5058558;28;20048;-89
2021/12/08 00:30:00;;;;;;;43.53;22.55;;;;;;;;;;5057400;28;20349;-89
2021/12/08 00:32:29;;;;;;;43.50;23.48;;;;;;;;;;5057561;28;20461;-88
2021/12/08 00:34:56;;;;;;;44.85;24.40;;;;;;;;;;5057056;28;20033;-89
2021/12/08 00:37:23;;;;;;;43.75;23.00;;;;;;;;;;5058351;28;20022;-89
2021/12/08 00:39:49;;;;;;;43.00;23.17;;;;;;;;;;5058542;28;20025;-89
2021/12/08 00:42:15;;;;;;;45.03;23.52;;;;;;;;;;5058394;28;20057;-90
2021/12/08 00:44:42;;;;;;;46.25;23.55;;;;;;;;;;5057180;28;20048;-88
2021/12/08 00:47:08;;;;;;;43.33;22.58;;;;;;;;;;5058038;28;20064;-88
2021/12/08 00:49:34;;;;;;;43.78;22.65;;;;;;;;;;5058062;28;20025;-87
2021/12/08 00:52:00;;;;;;;40.97;22.73;;;;;;;;;;5057244;28;20027;-88
2021/12/08 00:54:26;;;;;;;42.13;21.90;;;;;;;;;;5058241;28;20096;-89
2021/12/08 00:56:52;;;;;;;40.33;22.75;;;;;;;;;;5058063;28;20075;-88
2021/12/08 00:59:18;;;;;;;42.20;23.30;;;;;;;;;;5057664;28;20025;-88
2021/12/08 01:01:44;;;;;;;42.40;23.05;;;;;;;;;;5058088;28;20315;-88
2021/12/08 01:04:10;;;;;;;39.53;23.17;;;;;;;;;;5057988;28;20028;-88
2021/12/08 01:06:37;;;;;;;42.72;22.85;;;;;;;;;;5057701;28;20411;-87
2021/12/08 01:09:03;;;;;;;43.35;23.23;;;;;;;;;;5058025;28;20024;-88
2021/12/08 01:11:29;;;;;;;41.47;22.88;;;;;;;;;;5055813;28;20025;-88
2021/12/08 01:13:55;;;;;;;37.92;22.45;;;;;;;;;;5056231;28;20407;-87
2021/12/08 01:16:21;;;;;;;38.70;21.77;;;;;;;;;;5057622;28;20100;-89
2021/12/08 01:18:48;;;;;;;37.75;21.15;;;;;;;;;;5056605;28;20052;-88
2021/12/08 01:21:14;;;;;;;39.95;21.92;;;;;;;;;;5057616;28;20057;-88
2021/12/08 01:23:40;;;;;;;39.88;22.48;;;;;;;;;;5057748;28;20028;-88
2021/12/08 01:26:07;;;;;;;44.40;24.05;;;;;;;;;;5057821;28;20389;-88
2021/12/08 01:28:34;;;;;;;46.58;22.95;;;;;;;;;;5057667;28;20028;-89
2021/12/08 01:31:01;;;;;;;40.78;23.48;;;;;;;;;;5057327;28;20425;-88
2021/12/08 01:33:30;;;;;;;42.92;23.60;;;;;;;;;;5057558;28;20024;-89
2021/12/08 01:35:57;;;;;;;46.70;24.92;;;;;;;;;;5057306;28;20029;-89
2021/12/08 01:38:23;;;;;;;44.30;23.13;;;;;;;;;;5056601;28;20055;-88
2021/12/08 01:40:50;;;;;;;38.28;22.95;;;;;;;;;;5057336;28;20433;-88
2021/12/08 01:43:28;;;;;;;39.30;22.45;;;;;;;;;;5057227;28;20056;-88
2021/12/08 01:46:01;;;;;;;37.05;21.27;;;;;;;;;;5057211;28;20104;-89
2021/12/08 01:48:29;;;;;;;39.70;22.63;;;;;;;;;;5057354;28;20028;-87
2021/12/08 01:50:57;;;;;;;41.65;22.40;;;;;;;;;;5057316;28;20403;-86
2021/12/08 01:53:23;;;;;;;40.63;22.67;;;;;;;;;;5056434;28;20033;-87
2021/12/08 01:55:50;;;;;;;40.20;21.83;;;;;;;;;;5057168;28;20323;-87
2021/12/08 01:58:16;;;;;;;41.17;22.33;;;;;;;;;;5056290;28;20076;-87
2021/12/08 02:00:53;;;;;;;42.25;23.52;;;;;;;;;;5056999;28;20029;-87
2021/12/08 02:03:19;;;;;;;40.28;21.73;;;;;;;;;;5056825;28;20044;-87
2021/12/08 02:05:46;;;;;;;41.13;21.52;;;;;;;;;;5057311;28;20032;-86
2021/12/08 02:08:12;;;;;;;37.90;21.98;;;;;;;;;;5057264;28;20040;-87
2021/12/08 02:10:38;;;;;;;45.08;23.08;;;;;;;;;;5056265;28;20041;-87
2021/12/08 02:13:06;;;;;;;39.33;22.40;;;;;;;;;;5057070;28;20399;-87
2021/12/08 02:15:33;;;;;;;41.75;22.08;;;;;;;;;;5039378;28;20066;-87
2021/12/08 02:17:59;;;;;;;40.17;22.10;;;;;;;;;;5057012;28;20013;-87
2021/12/08 02:20:27;;;;;;;37.10;21.35;;;;;;;;;;5057034;28;20025;-87
2021/12/08 02:22:53;;;;;;;39.13;21.20;;;;;;;;;;5059110;28;20319;-88
2021/12/08 02:25:20;;;;;;;39.65;22.02;;;;;;;;;;5059793;28;20033;-88
2021/12/08 02:27:47;;;;;;;37.30;21.10;;;;;;;;;;5060805;28;20105;-87
2021/12/08 02:30:22;;;;;;;41.25;21.90;;;;;;;;;;5060559;28;20494;-88
2021/12/08 02:49:10;;;;;;;38.80;21.38;;;;;;;;;;5060281;28;20033;-89
2021/12/08 02:51:36;;;;;;;37.88;21.33;;;;;;;;;;5060362;28;20029;-87
2021/12/08 02:54:03;;;;;;;39.95;22.50;;;;;;;;;;5060411;28;20021;-88
2021/12/08 02:56:30;;;;;;;37.55;21.25;;;;;;;;;;5059376;28;20051;-88
2021/12/08 02:58:56;;;;;;;41.08;22.77;;;;;;;;;;5059368;28;20029;-89
2021/12/08 03:01:23;;;;;;;38.33;22.45;;;;;;;;;;5060097;28;20119;-88
2021/12/08 03:03:49;;;;;;;40.70;23.08;;;;;;;;;;5059889;28;20099;-88
2021/12/08 03:06:15;;;;;;;41.63;23.17;;;;;;;;;;5058909;28;20367;-88
2021/12/08 03:08:41;;;;;;;41.63;22.77;;;;;;;;;;5060162;28;20033;-88
2021/12/08 03:11:07;;;;;;;41.20;23.17;;;;;;;;;;5059975;28;20025;-88
2021/12/08 03:13:37;;;;;;;44.92;24.38;;;;;;;;;;5058922;28;20021;-88
2021/12/08 03:16:04;;;;;;;44.28;23.88;;;;;;;;;;5058978;28;20021;-88
2021/12/08 03:18:35;;;;;;;41.85;24.05;;;;;;;;;;5058790;28;20108;-88
2021/12/08 03:21:02;;;;;;;40.50;22.70;;;;;;;;;;5059903;28;20418;-88
2021/12/08 03:23:35;;;;;;;43.33;24.73;;;;;;;;;;5058812;28;20035;-89
2021/12/08 03:26:04;;;;;;;44.40;22.98;;;;;;;;;;5058585;28;20427;-90
2021/12/08 03:28:35;;;;;;;43.40;24.75;;;;;;;;;;5059982;28;20056;-90
2021/12/08 03:31:09;;;;;;;53.20;27.98;;;;;;;;;;5059869;28;20025;-90
2021/12/08 03:33:35;;;;;;;48.42;25.05;;;;;;;;;;5058625;28;20025;-88
2021/12/08 03:36:02;;;;;;;48.80;27.23;;;;;;;;;;5059843;28;20035;-88
2021/12/08 03:38:29;;;;;;;46.53;25.95;;;;;;;;;;5058645;28;20035;-89
2021/12/08 03:40:57;;;;;;;45.92;25.10;;;;;;;;;;5058470;28;20067;-88
2021/12/08 03:43:23;;;;;;;44.58;24.25;;;;;;;;;;5059327;28;20052;-89
2021/12/08 03:45:50;;;;;;;43.92;24.52;;;;;;;;;;5059255;28;20124;-89
2021/12/08 03:48:28;;;;;;;45.13;23.55;;;;;;;;;;5059467;28;20053;-89
2021/12/08 03:50:55;;;;;;;43.55;23.73;;;;;;;;;;5059366;28;20025;-88
2021/12/08 03:53:21;;;;;;;56.28;27.13;;;;;;;;;;5058247;28;20032;-88
2021/12/08 03:55:48;;;;;;;51.50;24.67;;;;;;;;;;5058205;28;20017;-90
2021/12/08 03:58:15;;;;;;;60.00;27.17;;;;;;;;;;5059295;28;20025;-90
2021/12/08 04:00:42;;;;;;;52.55;25.10;;;;;;;;;;5058088;28;20029;-89
2021/12/08 04:03:09;;;;;;;52.10;24.50;;;;;;;;;;5059010;28;20060;-90
2021/12/08 04:08:25;;;;;;;44.30;22.40;;;;;;;;;;5058966;28;20040;-89
2021/12/08 04:10:52;;;;;;;41.75;23.25;;;;;;;;;;5058993;28;20057;-89
2021/12/08 04:13:21;;;;;;;55.05;27.15;;;;;;;;;;5058923;28;20021;-88
2021/12/08 04:15:47;;;;;;;59.08;28.33;;;;;;;;;;5058965;28;20023;-88
2021/12/08 04:18:14;;;;;;;82.63;31.30;;;;;;;;;;5057800;28;20055;-89
2021/12/08 04:20:42;;;;;;;73.18;31.80;;;;;;;;;;5058648;28;20025;-88
2021/12/08 04:23:09;;;;;;;62.20;30.73;;;;;;;;;;5057798;28;20029;-88
2021/12/08 04:25:36;;;;;;;51.30;28.08;;;;;;;;;;5057799;28;20059;-88
2021/12/08 04:28:05;;;;;;;45.70;25.90;;;;;;;;;;5058756;28;20047;-89
2021/12/08 04:30:33;;;;;;;41.00;23.65;;;;;;;;;;5058284;28;20025;-87
2021/12/08 04:32:59;;;;;;;44.67;23.90;;;;;;;;;;5058577;28;20049;-87
2021/12/08 04:35:26;;;;;;;40.95;23.17;;;;;;;;;;5057382;28;20401;-88
2021/12/08 04:37:54;;;;;;;43.28;24.02;;;;;;;;;;5058118;28;20099;-88
2021/12/08 04:40:37;;;;;;;42.25;23.70;;;;;;;;;;5057368;28;20478;-89
2021/12/08 04:43:16;;;;;;;45.50;25.27;;;;;;;;;;5056951;28;20132;-89
2021/12/08 04:48:41;;;;;;;47.00;25.67;;;;;;;;;;5058069;28;20399;-88
2021/12/08 04:53:59;;;;;;;46.22;25.67;;;;;;;;;;5058294;28;20099;-88
2021/12/08 05:02:50;;;;;;;50.75;26.02;;;;;;;;;;5058299;28;20044;-90
2021/12/08 05:05:25;;;;;;;62.70;27.88;;;;;;;;;;5056786;28;20067;-88
2021/12/08 05:07:56;;;;;;;64.60;31.23;;;;;;;;;;5057742;28;20033;-88
2021/12/08 05:10:26;;;;;;;78.15;36.53;;;;;;;;;;5057751;28;20032;-87
2021/12/08 05:12:53;;;;;;;79.50;37.42;;;;;;;;;;5057801;28;20033;-88
2021/12/08 05:15:19;;;;;;;75.68;34.53;;;;;;;;;;5056577;28;20060;-87
2021/12/08 05:17:47;;;;;;;68.40;33.00;;;;;;;;;;5057661;28;20029;-88
2021/12/08 05:20:32;;;;;;;54.10;28.88;;;;;;;;;;5057612;28;20415;-89
2021/12/08 05:23:07;;;;;;;55.00;27.63;;;;;;;;;;5057748;28;20433;-89
2021/12/08 05:25:37;;;;;;;55.03;28.55;;;;;;;;;;5057144;28;20021;-88
2021/12/08 05:28:05;;;;;;;54.47;30.38;;;;;;;;;;5057513;28;20029;-88
2021/12/08 05:31:10;;;;;;;60.75;31.85;;;;;;;;;;5056919;28;20024;-87
2021/12/08 05:33:36;;;;;;;78.68;36.05;;;;;;;;;;5047661;28;20029;-89
2021/12/08 05:36:03;;;;;;;89.53;41.60;;;;;;;;;;5057150;28;20052;-89
2021/12/08 05:38:29;;;;;;;105.55;48.92;;;;;;;;;;5057089;28;20037;-87
2021/12/08 05:41:00;;;;;;;112.85;54.30;;;;;;;;;;5057415;28;20040;-87
2021/12/08 05:43:27;;;;;;;114.07;58.33;;;;;;;;;;5056633;28;20049;-87
2021/12/08 05:45:53;;;;;;;111.78;56.50;;;;;;;;;;5072406;28;20087;-87
2021/12/08 05:48:20;;;;;;;139.65;62.80;;;;;;;;;;5057029;28;20033;-87
2021/12/08 05:50:46;;;;;;;156.07;65.93;;;;;;;;;;5072465;28;20312;-89
2021/12/08 05:53:12;;;;;;;146.32;61.67;;;;;;;;;;5072442;28;20407;-89
2021/12/08 05:55:39;;;;;;;127.38;55.50;;;;;;;;;;5076526;28;20032;-88
2021/12/08 05:58:06;;;;;;;112.82;51.58;;;;;;;;;;5075876;28;20017;-88
2021/12/08 06:03:55;;;;;;;72.82;36.00;;;;;;;;;;5053882;28;20151;-88
2021/12/08 06:06:22;;;;;;;91.10;40.97;;;;;;;;;;5056961;28;20032;-89
2021/12/08 06:08:49;;;;;;;108.72;48.47;;;;;;;;;;5050325;28;20037;-87
2021/12/08 06:11:16;;;;;;;113.90;51.58;;;;;;;;;;5040946;28;20041;-88
2021/12/08 06:13:43;;;;;;;102.95;47.90;;;;;;;;;;5055471;28;20339;-89
2021/12/08 06:16:32;;;;;;;97.35;47.28;;;;;;;;;;5059738;28;20036;-85
2021/12/08 06:18:58;;;;;;;83.65;43.35;;;;;;;;;;5060953;28;20029;-91
2021/12/08 06:21:26;;;;;;;75.40;38.63;;;;;;;;;;5061405;28;20033;-89
2021/12/08 06:23:53;;;;;;;104.35;48.33;;;;;;;;;;5056327;28;20025;-89
2021/12/08 06:26:20;;;;;;;152.63;69.60;;;;;;;;;;5050416;28;20025;-90
2021/12/08 06:28:47;;;;;;;142.23;71.72;;;;;;;;;;5041122;28;20028;-89
2021/12/08 06:31:14;;;;;;;162.07;87.82;;;;;;;;;;5040634;28;20113;-89
2021/12/08 06:33:40;;;;;;;161.05;93.30;;;;;;;;;;5040612;28;20026;-90
2021/12/08 06:36:13;;;;;;;138.18;77.75;;;;;;;;;;5040721;28;20021;-90
2021/12/08 06:38:39;;;;;;;;;;;;;;;;;;5041241;28;20049;-89
2021/12/08 06:41:09;;;;;;;262.63;124.80;;;;;;;;;;5040550;28;20302;-90
2021/12/08 06:43:37;;;;;;;295.83;142.73;;;;;;;;;;5040694;28;20045;-90
2021/12/08 06:46:03;;;;;;;211.13;109.97;;;;;;;;;;5049106;28;20017;-89
2021/12/08 06:48:31;;;;;;;157.38;87.78;;;;;;;;;;5060264;28;20041;-89
2021/12/08 06:51:03;;;;;;;125.28;75.32;;;;;;;;;;5060414;28;20025;-89
2021/12/08 06:53:29;;;;;;;93.47;55.08;;;;;;;;;;5060550;28;20021;-89
2021/12/08 06:56:01;;;;;;;93.18;55.67;;;;;;;;;;5059148;28;20103;-89
2021/12/08 06:58:28;;;;;;;114.18;66.35;;;;;;;;;;5060666;28;20085;-90
2021/12/08 07:03:44;;;;;;;83.97;52.35;;;;;;;;;;5060360;28;20051;-90
2021/12/08 07:06:29;;;;;;;78.30;49.67;;;;;;;;;;5059203;28;20059;-89
2021/12/08 07:08:56;;;;;;;66.30;40.40;;;;;;;;;;5058940;28;20048;-89
2021/12/08 07:11:23;;;;;;;66.88;40.58;;;;;;;;;;5058965;28;20033;-89
2021/12/08 07:13:51;;;;;;;80.55;44.92;;;;;;;;;;5059205;28;20025;-89
2021/12/08 07:16:19;;;;;;;77.35;40.75;;;;;;;;;;5060360;28;20048;-89
2021/12/08 07:18:56;;;;;;;80.60;43.25;;;;;;;;;;5060137;28;20031;-89
2021/12/08 07:21:24;;;;;;;87.45;43.97;;;;;;;;;;5059806;28;20039;-89
2021/12/08 07:23:54;;;;;;;85.82;43.17;;;;;;;;;;5058887;28;20124;-89
2021/12/08 07:26:22;;;;;;;76.60;39.28;;;;;;;;;;5058890;28;20115;-89
2021/12/08 07:28:49;;;;;;;82.07;40.13;;;;;;;;;;5059323;28;20029;-89
2021/12/08 07:31:24;;;;;;;98.30;46.80;;;;;;;;;;5058446;28;20362;-89
2021/12/08 07:33:51;;;;;;;79.70;41.47;;;;;;;;;;5058780;28;20036;-89
2021/12/08 07:36:19;;;;;;;90.60;45.40;;;;;;;;;;5058481;28;20419;-89
2021/12/08 07:38:47;;;;;;;69.28;38.25;;;;;;;;;;5059533;28;20070;-88
2021/12/08 07:41:20;;;;;;;65.45;36.03;;;;;;;;;;5059448;28;20029;-89
2021/12/08 07:43:48;;;;;;;64.55;36.97;;;;;;;;;;5059146;28;20036;-89
2021/12/08 07:46:19;;;;;;;62.72;35.88;;;;;;;;;;5058697;28;20323;-89
2021/12/08 07:48:48;;;;;;;62.45;34.80;;;;;;;;;;5058096;28;20040;-89
2021/12/08 07:51:18;;;;;;;68.25;39.40;;;;;;;;;;5058048;28;20390;-89
2021/12/08 07:53:44;;;;;;;64.47;35.90;;;;;;;;;;5042199;28;20027;-88
2021/12/08 07:56:12;;;;;;;68.13;37.15;;;;;;;;;;5059149;28;20020;-90
2021/12/08 07:58:40;;;;;;;74.07;39.63;;;;;;;;;;5058865;28;20028;-90
2021/12/08 08:01:14;;;;;;;62.40;33.58;;;;;;;;;;5058136;28;20049;-89
2021/12/08 08:03:41;;;;;;;61.17;33.28;;;;;;;;;;5059062;28;20036;-90
2021/12/08 08:06:09;;;;;;;64.45;36.08;;;;;;;;;;5041032;28;20067;-89
2021/12/08 08:08:36;;;;;;;87.18;40.33;;;;;;;;;;5040992;28;20099;-90
2021/12/08 08:11:04;;;;;;;90.88;42.28;;;;;;;;;;5058947;28;20029;-90
2021/12/08 08:13:31;;;;;;;94.65;43.45;;;;;;;;;;5059174;28;20088;-90
2021/12/08 08:16:05;;;;;;;95.82;47.08;;;;;;;;;;5058798;28;20031;-89
2021/12/08 08:18:31;;;;;;;86.35;43.10;;;;;;;;;;5057460;28;20044;-89
2021/12/08 08:20:59;;;;;;;88.07;40.95;;;;;;;;;;5057427;28;20155;-90
2021/12/08 08:23:28;;;;;;;87.20;42.58;;;;;;;;;;5057700;28;20056;-90
2021/12/08 08:25:55;;;;;;;64.65;35.97;;;;;;;;;;5058474;28;20033;-89
2021/12/08 08:28:22;;;;;;;74.15;39.35;;;;;;;;;;5058589;28;20029;-91
2021/12/08 08:30:51;;;;;;;71.72;38.90;;;;;;;;;;5058447;28;20200;-90
2021/12/08 08:33:17;;;;;;;75.93;38.72;;;;;;;;;;5057149;28;20056;-89
2021/12/08 08:35:47;;;;;;;64.05;35.45;;;;;;;;;;5058550;28;20025;-90
2021/12/08 08:38:17;;;;;;;65.95;36.53;;;;;;;;;;5058552;28;20037;-89
2021/12/08 08:40:48;;;;;;;51.13;29.92;;;;;;;;;;5058449;28;20051;-90
2021/12/08 08:43:15;;;;;;;52.90;30.77;;;;;;;;;;5058229;28;20048;-90
2021/12/08 08:45:44;;;;;;;49.10;29.30;;;;;;;;;;5057372;28;20115;-89
2021/12/08 08:48:15;;;;;;;50.60;29.33;;;;;;;;;;5056767;28;20037;-89
2021/12/08 08:50:44;;;;;;;50.17;29.73;;;;;;;;;;5058285;28;20025;-90
2021/12/08 08:53:11;;;;;;;59.42;34.22;;;;;;;;;;5057997;28;20025;-90
2021/12/08 08:55:44;;;;;;;59.03;34.20;;;;;;;;;;5056651;28;20017;-89
2021/12/08 08:58:11;;;;;;;54.45;30.67;;;;;;;;;;5056907;28;20044;-89
2021/12/08 09:00:43;;;;;;;50.88;30.33;;;;;;;;;;5057978;28;20029;-89
2021/12/08 09:03:11;;;;;;;63.85;36.00;;;;;;;;;;5057015;28;20033;-90
2021/12/08 09:05:43;;;;;;;107.72;54.80;;;;;;;;;;5057860;28;20399;-89
2021/12/08 09:08:10;;;;;;;60.03;33.47;;;;;;;;;;5057992;28;20047;-89
2021/12/08 09:10:39;;;;;;;55.75;30.52;;;;;;;;;;5057754;28;20465;-89
2021/12/08 09:13:07;;;;;;;54.60;29.80;;;;;;;;;;5056907;28;20296;-89
2021/12/08 09:15:36;;;;;;;51.90;28.88;;;;;;;;;;5057613;28;20032;-90
2021/12/08 09:18:05;;;;;;;48.33;29.48;;;;;;;;;;5057797;28;20362;-89
2021/12/08 09:20:42;;;;;;;55.17;29.45;;;;;;;;;;5056910;28;20059;-90
2021/12/08 09:23:20;;;;;;;48.60;27.38;;;;;;;;;;5057772;28;20060;-89
2021/12/08 09:25:48;;;;;;;50.88;29.17;;;;;;;;;;5039729;28;20041;-88
2021/12/08 09:28:18;;;;;;;52.38;30.27;;;;;;;;;;5057565;28;20490;-89
2021/12/08 09:30:46;;;;;;;45.40;26.23;;;;;;;;;;5057027;28;20031;-89
2021/12/08 09:33:14;;;;;;;48.90;28.55;;;;;;;;;;5039850;28;20025;-90
2021/12/08 09:35:43;;;;;;;57.05;31.27;;;;;;;;;;5040090;28;20025;-89
2021/12/08 09:38:16;;;;;;;48.33;29.13;;;;;;;;;;5039658;28;20061;-91
2021/12/08 09:40:53;;;;;;;54.53;29.50;;;;;;;;;;5057398;28;20036;-89
2021/12/08 09:43:24;;;;;;;46.20;27.80;;;;;;;;;;5057424;28;20053;-90
2021/12/08 09:45:53;;;;;;;50.05;28.08;;;;;;;;;;5057313;28;20025;-88
2021/12/08 09:48:19;;;;;;;46.95;26.63;;;;;;;;;;5057422;28;20107;-89
2021/12/08 09:50:46;;;;;;;49.50;27.55;;;;;;;;;;5057270;28;20025;-88
2021/12/08 09:53:12;;;;;;;47.90;26.88;;;;;;;;;;5057222;28;20163;-89
2021/12/08 09:55:39;;;;;;;47.80;26.17;;;;;;;;;;5057644;28;20411;-90
2021/12/08 09:58:05;;;;;;;42.47;25.20;;;;;;;;;;5057252;28;20112;-89
2021/12/08 10:00:34;;;;;;;43.92;25.08;;;;;;;;;;5057289;28;20049;-89
2021/12/08 10:03:01;;;;;;;46.55;26.52;;;;;;;;;;5039841;28;20036;-88
2021/12/08 10:05:32;;;;;;;47.72;26.27;;;;;;;;;;5057419;28;20437;-89
2021/12/08 10:07:58;;;;;;;49.33;25.77;;;;;;;;;;5057510;28;20047;-89
2021/12/08 10:10:25;;;;;;;48.35;27.08;;;;;;;;;;5056996;28;20037;-89
2021/12/08 10:12:51;;;;;;;43.67;23.65;;;;;;;;;;5039248;28;20048;-89
2021/12/08 10:15:18;;;;;;;44.05;24.35;;;;;;;;;;5057487;28;20021;-89
2021/12/08 10:17:45;;;;;;;57.67;29.73;;;;;;;;;;5039353;28;20123;-90
2021/12/08 10:20:11;;;;;;;210.57;78.68;;;;;;;;;;5057084;28;20108;-89
2021/12/08 10:22:38;;;;;;;81.22;36.95;;;;;;;;;;5039611;28;20039;-89
2021/12/08 10:25:07;;;;;;;69.28;34.03;;;;;;;;;;5057148;28;20103;-90
2021/12/08 10:27:53;;;;;;;56.22;29.00;;;;;;;;;;5057120;28;20403;-89
2021/12/08 10:30:23;;;;;;;41.88;23.23;;;;;;;;;;5056759;28;20067;-89
2021/12/08 10:32:50;;;;;;;42.65;24.38;;;;;;;;;;5056979;28;20434;-89
2021/12/08 10:35:39;;;;;;;39.88;23.77;;;;;;;;;;5056890;28;20422;-88
2021/12/08 10:38:05;;;;;;;45.83;25.65;;;;;;;;;;5039175;28;20037;-89
2021/12/08 10:40:31;;;;;;;45.42;25.27;;;;;;;;;;5056846;28;20029;-90
2021/12/08 10:42:57;;;;;;;46.20;26.33;;;;;;;;;;5058240;28;20076;-89
2021/12/08 10:45:28;;;;;;;58.58;33.88;;;;;;;;;;5060614;28;20029;-89
2021/12/08 10:47:58;;;;;;;56.55;32.30;;;;;;;;;;5042756;28;20040;-90
2021/12/08 10:55:57;;;;;;;54.70;30.48;;;;;;;;;;5060584;28;20067;-89
2021/12/08 10:58:24;;;;;;;46.80;28.35;;;;;;;;;;5060286;28;20449;-89
2021/12/08 11:00:51;;;;;;;47.40;28.10;;;;;;;;;;5042324;28;20414;-89
2021/12/08 11:03:18;;;;;;;46.88;27.55;;;;;;;;;;5042630;28;20048;-89
2021/12/08 11:05:47;;;;;;;49.17;30.25;;;;;;;;;;5060252;28;20029;-89
2021/12/08 11:08:21;;;;;;;49.90;30.17;;;;;;;;;;5042716;28;20419;-90
2021/12/08 11:10:50;;;;;;;72.13;37.58;;;;;;;;;;5042484;28;20033;-89
2021/12/08 11:13:18;;;;;;;72.30;40.50;;;;;;;;;;5042224;28;20045;-89
2021/12/08 11:15:44;;;;;;;48.90;30.30;;;;;;;;;;5060046;28;20059;-88
2021/12/08 11:18:19;;;;;;;52.78;31.08;;;;;;;;;;5060107;28;20037;-88
2021/12/08 11:20:48;;;;;;;57.25;34.70;;;;;;;;;;5059714;28;20055;-89
2021/12/08 11:23:17;;;;;;;67.65;37.55;;;;;;;;;;5042080;28;20084;-89
2021/12/08 11:25:50;;;;;;;53.10;29.50;;;;;;;;;;5041535;28;20083;-88
2021/12/08 11:28:20;;;;;;;54.90;32.75;;;;;;;;;;5060009;28;20056;-89
2021/12/08 11:30:47;;;;;;;52.72;28.98;;;;;;;;;;5059527;28;20029;-89
2021/12/08 11:33:16;;;;;;;54.78;31.00;;;;;;;;;;5041720;28;20029;-88
2021/12/08 11:35:43;;;;;;;56.05;32.75;;;;;;;;;;5059565;28;20029;-90
2021/12/08 11:38:09;;;;;;;50.55;28.15;;;;;;;;;;5059535;28;20040;-88
2021/12/08 11:40:36;;;;;;;49.17;29.10;;;;;;;;;;5059533;28;20048;-91
2021/12/08 11:43:03;;;;;;;51.92;29.20;;;;;;;;;;5059251;28;20060;-90
2021/12/08 11:45:36;;;;;;;55.20;30.60;;;;;;;;;;5041813;28;20029;-89
2021/12/08 11:48:03;;;;;;;54.65;30.27;;;;;;;;;;5059578;28;20028;-88
2021/12/08 11:50:32;;;;;;;52.00;29.05;;;;;;;;;;5059280;28;20024;-88
2021/12/08 11:52:58;;;;;;;76.40;42.92;;;;;;;;;;5059302;28;20028;-89
2021/12/08 11:55:25;;;;;;;66.38;37.78;;;;;;;;;;5058671;28;20028;-89
2021/12/08 11:57:55;;;;;;;53.65;31.23;;;;;;;;;;5059455;28;20029;-87
2021/12/08 12:00:24;;;;;;;53.08;31.17;;;;;;;;;;5058882;28;20327;-89
2021/12/08 12:02:55;;;;;;;61.03;32.80;;;;;;;;;;5059085;28;20032;-89
2021/12/08 12:05:26;;;;;;;66.35;34.33;;;;;;;;;;5059099;28;20032;-89
2021/12/08 12:07:52;;;;;;;72.40;34.45;;;;;;;;;;5059334;28;20071;-89
2021/12/08 12:10:19;;;;;;;74.40;37.72;;;;;;;;;;5041057;28;20106;-88
2021/12/08 12:12:45;;;;;;;51.13;31.38;;;;;;;;;;5059147;28;20028;-89
2021/12/08 12:15:16;;;;;;;60.60;31.88;;;;;;;;;;5058881;28;20021;-87
2021/12/08 12:17:43;;;;;;;55.63;30.80;;;;;;;;;;5058805;28;20021;-89
2021/12/08 12:20:12;;;;;;;53.20;30.42;;;;;;;;;;5058817;28;20045;-88
2021/12/08 12:22:40;;;;;;;54.38;30.77;;;;;;;;;;5058819;28;20029;-88
2021/12/08 12:25:07;;;;;;;51.30;29.13;;;;;;;;;;5041144;28;20021;-88
2021/12/08 12:27:51;;;;;;;52.63;31.10;;;;;;;;;;5058733;28;20111;-87
2021/12/08 12:30:19;;;;;;;56.20;32.70;;;;;;;;;;5040839;28;20091;-88
2021/12/08 12:32:50;;;;;;;47.92;28.30;;;;;;;;;;5041164;28;20028;-87
2021/12/08 12:35:16;;;;;;;49.42;29.05;;;;;;;;;;5058735;28;20023;-88
2021/12/08 12:37:43;;;;;;;50.80;29.50;;;;;;;;;;5058587;28;20025;-87
2021/12/08 12:40:11;;;;;;;52.35;32.08;;;;;;;;;;5058337;28;20036;-87
2021/12/08 12:42:46;;;;;;;47.80;28.27;;;;;;;;;;5040209;28;20048;-87
2021/12/08 12:45:14;;;;;;;59.63;34.97;;;;;;;;;;5058143;28;20033;-87
2021/12/08 12:47:41;;;;;;;61.72;32.60;;;;;;;;;;5040648;28;20056;-87
2021/12/08 12:50:15;;;;;;;51.22;29.63;;;;;;;;;;5040741;28;20032;-87
2021/12/08 12:52:41;;;;;;;49.38;26.05;;;;;;;;;;5040259;28;20049;-88
2021/12/08 12:55:07;;;;;;;45.92;28.48;;;;;;;;;;5040459;28;20017;-89
2021/12/08 12:57:33;;;;;;;47.85;30.58;;;;;;;;;;5058138;28;20021;-88
2021/12/08 12:59:59;;;;;;;68.05;41.00;;;;;;;;;;5057696;28;20052;-88
2021/12/08 13:02:33;;;;;;;50.50;29.05;;;;;;;;;;5057970;28;20025;-88
2021/12/08 13:04:59;;;;;;;48.28;27.02;;;;;;;;;;5040433;28;20106;-88
2021/12/08 13:07:27;;;;;;;48.65;27.55;;;;;;;;;;5039046;28;20056;-87
2021/12/08 13:09:54;;;;;;;61.20;29.15;;;;;;;;;;5057830;28;20319;-89
2021/12/08 13:12:35;;;;;;;69.47;34.28;;;;;;;;;;5039926;28;20502;-87
2021/12/08 13:15:19;;;;;;;47.50;27.48;;;;;;;;;;5057672;28;20105;-87
2021/12/08 13:18:03;;;;;;;52.88;33.97;;;;;;;;;;5057992;28;20031;-88
2021/12/08 13:20:30;;;;;;;41.22;25.10;;;;;;;;;;5057850;28;20111;-88
2021/12/08 13:23:00;;;;;;;35.25;21.70;;;;;;;;;;5057889;28;20021;-88
2021/12/08 13:25:33;;;;;;;33.25;19.50;;;;;;;;;;5057647;28;20036;-88
2021/12/08 13:28:15;;;;;;;36.67;23.83;;;;;;;;;;5023029;28;20044;-87
2021/12/08 13:30:49;;;;;;;34.53;21.33;;;;;;;;;;5057516;28;20032;-88
2021/12/08 13:33:29;;;;;;;38.83;23.10;;;;;;;;;;5057448;28;20028;-87
2021/12/08 13:35:57;;;;;;;37.35;22.27;;;;;;;;;;5057425;28;20021;-87
2021/12/08 13:38:23;;;;;;;33.65;21.40;;;;;;;;;;5057810;28;20033;-88
2021/12/08 13:40:53;;;;;;;32.60;20.80;;;;;;;;;;5057893;28;20033;-87
2021/12/08 13:43:32;;;;;;;36.10;21.92;;;;;;;;;;5057204;28;20095;-87
2021/12/08 13:45:58;;;;;;;30.35;20.13;;;;;;;;;;5057315;28;20029;-88
2021/12/08 13:48:24;;;;;;;35.08;22.35;;;;;;;;;;5039391;28;20083;-88
2021/12/08 13:50:50;;;;;;;37.42;23.83;;;;;;;;;;5039472;28;20056;-88
2021/12/08 13:53:16;;;;;;;46.28;28.17;;;;;;;;;;5057600;28;20281;-88
2021/12/08 13:55:50;;;;;;;50.13;29.20;;;;;;;;;;5039733;28;20028;-88
2021/12/08 13:58:19;;;;;;;50.47;26.45;;;;;;;;;;5057225;28;20108;-88
2021/12/08 14:00:47;;;;;;;54.78;27.20;;;;;;;;;;5057579;28;20029;-87
2021/12/08 14:03:18;;;;;;;53.80;29.40;;;;;;;;;;5039825;28;20025;-87
2021/12/08 14:05:52;;;;;;;60.87;34.83;;;;;;;;;;5039824;28;20311;-88
2021/12/08 14:08:26;;;;;;;66.20;37.05;;;;;;;;;;5057317;28;20676;-88
2021/12/08 14:10:54;;;;;;;69.63;39.83;;;;;;;;;;5039735;28;20121;-88
2021/12/08 14:13:26;;;;;;;75.82;40.75;;;;;;;;;;5039289;28;20047;-88
2021/12/08 14:16:08;;;;;;;73.97;41.28;;;;;;;;;;5056970;28;20021;-88
2021/12/08 14:18:47;;;;;;;76.10;39.65;;;;;;;;;;5059752;28;20029;-88
2021/12/08 14:21:17;;;;;;;78.18;42.50;;;;;;;;;;5061088;28;20025;-88
2021/12/08 14:23:48;;;;;;;83.43;44.33;;;;;;;;;;5043291;28;20044;-88
2021/12/08 14:26:15;;;;;;;83.15;44.45;;;;;;;;;;5060815;28;20033;-88
2021/12/08 14:28:42;;;;;;;80.22;45.17;;;;;;;;;;5043285;28;20120;-88
2021/12/08 14:31:10;;;;;;;84.00;44.50;;;;;;;;;;5043076;28;20033;-88
2021/12/08 14:33:36;;;;;;;82.78;43.08;;;;;;;;;;5043247;28;20120;-87
2021/12/08 14:36:08;;;;;;;65.82;37.03;;;;;;;;;;5060750;28;20021;-88
2021/12/08 14:38:38;;;;;;;57.77;33.07;;;;;;;;;;5043330;28;20430;-87
2021/12/08 14:41:17;;;;;;;57.80;33.97;;;;;;;;;;5042637;28;20040;-87
2021/12/08 14:43:44;;;;;;;58.05;33.03;;;;;;;;;;5043044;28;20041;-88
2021/12/08 14:46:11;;;;;;;50.15;31.38;;;;;;;;;;5060871;28;20032;-88
2021/12/08 14:48:43;;;;;;;56.67;32.83;;;;;;;;;;5060723;28;20048;-87
2021/12/08 14:51:13;;;;;;;60.90;33.85;;;;;;;;;;5060285;28;20071;-87
2021/12/08 14:53:39;;;;;;;59.50;34.15;;;;;;;;;;5060116;28;20037;-87
2021/12/08 14:56:12;;;;;;;70.32;37.80;;;;;;;;;;5060290;28;20025;-88
2021/12/08 14:58:39;;;;;;;73.32;40.20;;;;;;;;;;5042101;28;20079;-87
2021/12/08 15:01:11;;;;;;;63.97;37.25;;;;;;;;;;5060125;28;20035;-88
2021/12/08 15:03:46;;;;;;;62.70;35.50;;;;;;;;;;5060209;28;20028;-88
2021/12/08 15:06:20;;;;;;;69.03;39.53;;;;;;;;;;5042221;28;20028;-88
2021/12/08 15:08:46;;;;;;;78.40;43.40;;;;;;;;;;5042190;28;20140;-87
2021/12/08 15:11:23;;;;;;;87.70;48.08;;;;;;;;;;5060302;28;20076;-88
2021/12/08 15:13:50;;;;;;;90.30;49.95;;;;;;;;;;5060198;28;20044;-88